sensor_id;sensor_type;location;lat;lon;timestamp;P1;durP1;ratioP1;P2;durP2;ratioP2
44276;SDS011;29973;43.742;1.236;2024-03-06T00:01:51;4.65;;;2.15;;
44276;SDS011;29973;43.742;1.236;2024-03-06T00:04:16;4.15;;;1.80;;
44276;SDS011;29973;43.742;1.236;2024-03-06T00:06:42;6.13;;;2.10;;
44276;SDS011;29973;43.742;1.236;2024-03-06T00:09:08;6.03;;;2.00;;
44276;SDS011;29973;43.742;1.236;2024-03-06T00:11:34;5.70;;;1.63;;
44276;SDS011;29973;43.742;1.236;2024-03-06T00:14:02;2.33;;;1.40;;
44276;SDS011;29973;43.742;1.236;2024-03-06T00:16:30;1.50;;;1.40;;
44276;SDS011;29973;43.742;1.236;2024-03-06T00:18:59;4.60;;;1.20;;
44276;SDS011;29973;43.742;1.236;2024-03-06T00:21:25;2.45;;;1.40;;
44276;SDS011;29973;43.742;1.236;2024-03-06T00:23:50;3.90;;;1.50;;
44276;SDS011;29973;43.742;1.236;2024-03-06T00:26:16;1.52;;;1.42;;
44276;SDS011;29973;43.742;1.236;2024-03-06T00:28:42;2.10;;;1.90;;
44276;SDS011;29973;43.742;1.236;2024-03-06T00:31:07;1.80;;;1.70;;
44276;SDS011;29973;43.742;1.236;2024-03-06T00:33:33;1.80;;;1.70;;
44276;SDS011;29973;43.742;1.236;2024-03-06T00:35:59;1.92;;;1.83;;
44276;SDS011;29973;43.742;1.236;2024-03-06T00:38:25;4.18;;;1.58;;
44276;SDS011;29973;43.742;1.236;2024-03-06T00:40:50;1.63;;;1.60;;
44276;SDS011;29973;43.742;1.236;2024-03-06T00:43:16;2.13;;;1.67;;
44276;SDS011;29973;43.742;1.236;2024-03-06T00:45:42;1.48;;;1.38;;
44276;SDS011;29973;43.742;1.236;2024-03-06T00:48:07;3.05;;;1.63;;
44276;SDS011;29973;43.742;1.236;2024-03-06T00:50:33;2.20;;;2.08;;
44276;SDS011;29973;43.742;1.236;2024-03-06T00:52:59;2.53;;;1.75;;
44276;SDS011;29973;43.742;1.236;2024-03-06T00:55:25;1.73;;;1.63;;
44276;SDS011;29973;43.742;1.236;2024-03-06T00:57:50;1.90;;;1.80;;
44276;SDS011;29973;43.742;1.236;2024-03-06T01:00:16;1.90;;;1.80;;
44276;SDS011;29973;43.742;1.236;2024-03-06T01:02:42;3.25;;;2.35;;
44276;SDS011;29973;43.742;1.236;2024-03-06T01:05:08;4.00;;;3.00;;
44276;SDS011;29973;43.742;1.236;2024-03-06T01:07:34;10.25;;;5.30;;
44276;SDS011;29973;43.742;1.236;2024-03-06T01:10:02;6.95;;;3.85;;
44276;SDS011;29973;43.742;1.236;2024-03-06T01:12:29;3.25;;;1.85;;
44276;SDS011;29973;43.742;1.236;2024-03-06T01:14:55;1.75;;;1.65;;
44276;SDS011;29973;43.742;1.236;2024-03-06T01:17:21;2.10;;;2.00;;
44276;SDS011;29973;43.742;1.236;2024-03-06T01:19:47;4.65;;;2.65;;
44276;SDS011;29973;43.742;1.236;2024-03-06T01:22:13;9.60;;;4.50;;
44276;SDS011;29973;43.742;1.236;2024-03-06T01:24:39;8.50;;;3.63;;
44276;SDS011;29973;43.742;1.236;2024-03-06T01:27:04;4.93;;;2.35;;
44276;SDS011;29973;43.742;1.236;2024-03-06T01:29:31;4.88;;;3.03;;
44276;SDS011;29973;43.742;1.236;2024-03-06T01:31:57;3.05;;;2.22;;
44276;SDS011;29973;43.742;1.236;2024-03-06T01:34:23;2.40;;;2.13;;
44276;SDS011;29973;43.742;1.236;2024-03-06T01:36:50;3.20;;;1.83;;
44276;SDS011;29973;43.742;1.236;2024-03-06T01:39:16;3.45;;;2.50;;
44276;SDS011;29973;43.742;1.236;2024-03-06T01:41:49;2.10;;;2.00;;
44276;SDS011;29973;43.742;1.236;2024-03-06T01:44:15;2.55;;;2.35;;
44276;SDS011;29973;43.742;1.236;2024-03-06T01:46:45;3.78;;;2.30;;
44276;SDS011;29973;43.742;1.236;2024-03-06T01:49:14;3.22;;;3.03;;
44276;SDS011;29973;43.742;1.236;2024-03-06T01:51:41;3.72;;;3.53;;
44276;SDS011;29973;43.742;1.236;2024-03-06T01:56:38;2.72;;;2.53;;
44276;SDS011;29973;43.742;1.236;2024-03-06T01:59:08;3.20;;;2.63;;
44276;SDS011;29973;43.742;1.236;2024-03-06T02:01:34;8.10;;;3.20;;
44276;SDS011;29973;43.742;1.236;2024-03-06T02:04:01;5.70;;;4.00;;
44276;SDS011;29973;43.742;1.236;2024-03-06T02:06:27;13.48;;;6.70;;
44276;SDS011;29973;43.742;1.236;2024-03-06T02:08:54;5.53;;;4.95;;
44276;SDS011;29973;43.742;1.236;2024-03-06T02:11:20;3.55;;;3.28;;
44276;SDS011;29973;43.742;1.236;2024-03-06T02:13:46;4.85;;;4.30;;
44276;SDS011;29973;43.742;1.236;2024-03-06T02:16:14;3.60;;;3.40;;
44276;SDS011;29973;43.742;1.236;2024-03-06T02:18:50;4.53;;;3.25;;
44276;SDS011;29973;43.742;1.236;2024-03-06T02:21:20;14.90;;;9.10;;
44276;SDS011;29973;43.742;1.236;2024-03-06T02:23:50;11.05;;;7.93;;
44276;SDS011;29973;43.742;1.236;2024-03-06T02:26:19;8.75;;;7.82;;
44276;SDS011;29973;43.742;1.236;2024-03-06T02:28:52;7.13;;;6.40;;
44276;SDS011;29973;43.742;1.236;2024-03-06T02:31:19;4.70;;;4.32;;
44276;SDS011;29973;43.742;1.236;2024-03-06T02:33:47;4.32;;;3.95;;
44276;SDS011;29973;43.742;1.236;2024-03-06T02:36:13;7.88;;;4.60;;
44276;SDS011;29973;43.742;1.236;2024-03-06T02:38:39;6.18;;;5.57;;
44276;SDS011;29973;43.742;1.236;2024-03-06T02:41:05;8.32;;;7.05;;
44276;SDS011;29973;43.742;1.236;2024-03-06T02:43:35;11.50;;;7.70;;
44276;SDS011;29973;43.742;1.236;2024-03-06T02:46:01;8.52;;;5.47;;
44276;SDS011;29973;43.742;1.236;2024-03-06T02:48:27;9.90;;;7.13;;
44276;SDS011;29973;43.742;1.236;2024-03-06T02:50:53;6.82;;;5.40;;
44276;SDS011;29973;43.742;1.236;2024-03-06T02:53:19;4.05;;;3.75;;
44276;SDS011;29973;43.742;1.236;2024-03-06T02:55:45;6.38;;;4.50;;
44276;SDS011;29973;43.742;1.236;2024-03-06T02:58:11;4.28;;;3.90;;
44276;SDS011;29973;43.742;1.236;2024-03-06T03:00:39;4.40;;;4.05;;
44276;SDS011;29973;43.742;1.236;2024-03-06T03:03:06;4.13;;;3.83;;
44276;SDS011;29973;43.742;1.236;2024-03-06T03:05:31;4.20;;;3.90;;
44276;SDS011;29973;43.742;1.236;2024-03-06T03:07:58;3.95;;;3.53;;
44276;SDS011;29973;43.742;1.236;2024-03-06T03:10:24;6.78;;;4.15;;
44276;SDS011;29973;43.742;1.236;2024-03-06T03:12:50;5.25;;;3.88;;
44276;SDS011;29973;43.742;1.236;2024-03-06T03:15:16;6.85;;;3.67;;
44276;SDS011;29973;43.742;1.236;2024-03-06T03:17:42;4.20;;;3.85;;
44276;SDS011;29973;43.742;1.236;2024-03-06T03:20:08;4.35;;;3.97;;
44276;SDS011;29973;43.742;1.236;2024-03-06T03:22:37;9.80;;;4.75;;
44276;SDS011;29973;43.742;1.236;2024-03-06T03:25:07;5.63;;;4.88;;
44276;SDS011;29973;43.742;1.236;2024-03-06T03:27:33;5.72;;;5.22;;
44276;SDS011;29973;43.742;1.236;2024-03-06T03:29:59;5.13;;;4.70;;
44276;SDS011;29973;43.742;1.236;2024-03-06T03:32:25;4.35;;;4.03;;
44276;SDS011;29973;43.742;1.236;2024-03-06T03:34:51;14.52;;;7.70;;
44276;SDS011;29973;43.742;1.236;2024-03-06T03:37:17;6.15;;;5.50;;
44276;SDS011;29973;43.742;1.236;2024-03-06T03:39:46;8.07;;;5.45;;
44276;SDS011;29973;43.742;1.236;2024-03-06T03:42:11;8.23;;;4.75;;
44276;SDS011;29973;43.742;1.236;2024-03-06T03:44:37;4.45;;;4.00;;
44276;SDS011;29973;43.742;1.236;2024-03-06T03:47:03;5.30;;;4.80;;
44276;SDS011;29973;43.742;1.236;2024-03-06T03:49:28;5.50;;;4.32;;
44276;SDS011;29973;43.742;1.236;2024-03-06T03:51:54;5.40;;;5.00;;
44276;SDS011;29973;43.742;1.236;2024-03-06T03:54:20;6.18;;;5.45;;
44276;SDS011;29973;43.742;1.236;2024-03-06T03:56:45;5.78;;;5.32;;
44276;SDS011;29973;43.742;1.236;2024-03-06T03:59:11;6.13;;;4.75;;
44276;SDS011;29973;43.742;1.236;2024-03-06T04:01:37;6.35;;;5.80;;
44276;SDS011;29973;43.742;1.236;2024-03-06T04:04:02;11.88;;;6.55;;
44276;SDS011;29973;43.742;1.236;2024-03-06T04:06:28;16.85;;;8.48;;
44276;SDS011;29973;43.742;1.236;2024-03-06T04:08:54;10.00;;;6.55;;
44276;SDS011;29973;43.742;1.236;2024-03-06T04:11:20;8.50;;;5.65;;
44276;SDS011;29973;43.742;1.236;2024-03-06T04:13:45;18.55;;;6.72;;
44276;SDS011;29973;43.742;1.236;2024-03-06T04:16:15;6.25;;;5.70;;
44276;SDS011;29973;43.742;1.236;2024-03-06T04:18:44;5.85;;;5.22;;
44276;SDS011;29973;43.742;1.236;2024-03-06T04:21:10;8.23;;;5.70;;
44276;SDS011;29973;43.742;1.236;2024-03-06T04:23:36;7.30;;;5.55;;
44276;SDS011;29973;43.742;1.236;2024-03-06T04:26:02;5.60;;;5.10;;
44276;SDS011;29973;43.742;1.236;2024-03-06T04:28:28;6.15;;;5.28;;
44276;SDS011;29973;43.742;1.236;2024-03-06T04:30:55;8.98;;;4.97;;
44276;SDS011;29973;43.742;1.236;2024-03-06T04:33:21;5.75;;;5.22;;
44276;SDS011;29973;43.742;1.236;2024-03-06T04:35:47;11.05;;;5.95;;
44276;SDS011;29973;43.742;1.236;2024-03-06T04:38:12;7.07;;;6.32;;
44276;SDS011;29973;43.742;1.236;2024-03-06T04:40:39;7.72;;;7.22;;
44276;SDS011;29973;43.742;1.236;2024-03-06T04:43:04;9.35;;;8.45;;
44276;SDS011;29973;43.742;1.236;2024-03-06T04:45:31;9.85;;;8.80;;
44276;SDS011;29973;43.742;1.236;2024-03-06T04:47:57;7.95;;;7.45;;
44276;SDS011;29973;43.742;1.236;2024-03-06T04:50:23;8.20;;;7.63;;
44276;SDS011;29973;43.742;1.236;2024-03-06T04:52:49;8.13;;;7.63;;
44276;SDS011;29973;43.742;1.236;2024-03-06T04:55:15;8.20;;;7.60;;
44276;SDS011;29973;43.742;1.236;2024-03-06T04:57:45;8.02;;;7.47;;
44276;SDS011;29973;43.742;1.236;2024-03-06T05:00:11;8.68;;;7.93;;
44276;SDS011;29973;43.742;1.236;2024-03-06T05:02:38;17.05;;;11.30;;
44276;SDS011;29973;43.742;1.236;2024-03-06T05:05:04;15.52;;;10.98;;
44276;SDS011;29973;43.742;1.236;2024-03-06T05:07:30;13.75;;;12.45;;
44276;SDS011;29973;43.742;1.236;2024-03-06T05:10:02;13.32;;;12.05;;
44276;SDS011;29973;43.742;1.236;2024-03-06T05:12:32;13.05;;;11.68;;
44276;SDS011;29973;43.742;1.236;2024-03-06T05:15:00;13.75;;;11.70;;
44276;SDS011;29973;43.742;1.236;2024-03-06T05:17:25;15.00;;;13.52;;
44276;SDS011;29973;43.742;1.236;2024-03-06T05:19:51;18.50;;;10.38;;
44276;SDS011;29973;43.742;1.236;2024-03-06T05:22:17;28.52;;;12.27;;
44276;SDS011;29973;43.742;1.236;2024-03-06T05:24:43;20.30;;;18.05;;
44276;SDS011;29973;43.742;1.236;2024-03-06T05:27:09;27.02;;;19.83;;
44276;SDS011;29973;43.742;1.236;2024-03-06T05:29:36;23.92;;;19.15;;
44276;SDS011;29973;43.742;1.236;2024-03-06T05:32:02;26.52;;;21.48;;
44276;SDS011;29973;43.742;1.236;2024-03-06T05:34:34;50.20;;;30.90;;
44276;SDS011;29973;43.742;1.236;2024-03-06T05:37:00;30.50;;;22.58;;
44276;SDS011;29973;43.742;1.236;2024-03-06T05:39:28;54.13;;;28.15;;
44276;SDS011;29973;43.742;1.236;2024-03-06T05:41:54;58.83;;;33.88;;
44276;SDS011;29973;43.742;1.236;2024-03-06T05:44:34;37.15;;;24.23;;
44276;SDS011;29973;43.742;1.236;2024-03-06T05:47:31;34.17;;;21.30;;
44276;SDS011;29973;43.742;1.236;2024-03-06T05:49:57;22.15;;;11.73;;
44276;SDS011;29973;43.742;1.236;2024-03-06T05:52:22;17.00;;;12.25;;
44276;SDS011;29973;43.742;1.236;2024-03-06T05:54:49;19.05;;;11.40;;
44276;SDS011;29973;43.742;1.236;2024-03-06T05:57:15;19.42;;;11.23;;
44276;SDS011;29973;43.742;1.236;2024-03-06T05:59:41;19.27;;;10.65;;
44276;SDS011;29973;43.742;1.236;2024-03-06T06:02:07;13.23;;;8.32;;
44276;SDS011;29973;43.742;1.236;2024-03-06T06:04:33;16.80;;;10.07;;
44276;SDS011;29973;43.742;1.236;2024-03-06T06:06:58;12.13;;;6.25;;
44276;SDS011;29973;43.742;1.236;2024-03-06T06:09:24;39.78;;;19.23;;
44276;SDS011;29973;43.742;1.236;2024-03-06T06:11:50;18.98;;;7.10;;
44276;SDS011;29973;43.742;1.236;2024-03-06T06:14:21;42.95;;;18.42;;
44276;SDS011;29973;43.742;1.236;2024-03-06T06:16:55;41.20;;;16.40;;
44276;SDS011;29973;43.742;1.236;2024-03-06T06:19:21;33.55;;;16.63;;
44276;SDS011;29973;43.742;1.236;2024-03-06T06:21:47;21.48;;;10.48;;
44276;SDS011;29973;43.742;1.236;2024-03-06T06:24:13;14.85;;;8.93;;
44276;SDS011;29973;43.742;1.236;2024-03-06T06:26:39;15.32;;;10.10;;
44276;SDS011;29973;43.742;1.236;2024-03-06T06:29:05;19.50;;;12.40;;
44276;SDS011;29973;43.742;1.236;2024-03-06T06:31:31;34.10;;;17.40;;
44276;SDS011;29973;43.742;1.236;2024-03-06T06:33:57;14.45;;;10.38;;
44276;SDS011;29973;43.742;1.236;2024-03-06T06:36:22;14.68;;;9.55;;
44276;SDS011;29973;43.742;1.236;2024-03-06T06:38:48;12.90;;;8.70;;
44276;SDS011;29973;43.742;1.236;2024-03-06T06:41:14;21.42;;;9.93;;
44276;SDS011;29973;43.742;1.236;2024-03-06T06:43:41;13.15;;;9.55;;
44276;SDS011;29973;43.742;1.236;2024-03-06T06:46:06;18.38;;;8.85;;
44276;SDS011;29973;43.742;1.236;2024-03-06T06:48:33;12.73;;;8.20;;
44276;SDS011;29973;43.742;1.236;2024-03-06T06:51:00;10.38;;;6.97;;
44276;SDS011;29973;43.742;1.236;2024-03-06T06:53:32;10.88;;;7.03;;
44276;SDS011;29973;43.742;1.236;2024-03-06T06:55:58;8.60;;;7.10;;
44276;SDS011;29973;43.742;1.236;2024-03-06T06:58:24;13.82;;;7.57;;
44276;SDS011;29973;43.742;1.236;2024-03-06T07:00:52;17.25;;;7.25;;
44276;SDS011;29973;43.742;1.236;2024-03-06T07:03:18;10.10;;;7.82;;
44276;SDS011;29973;43.742;1.236;2024-03-06T07:05:44;13.20;;;7.65;;
44276;SDS011;29973;43.742;1.236;2024-03-06T07:08:10;7.95;;;7.18;;
44276;SDS011;29973;43.742;1.236;2024-03-06T07:10:35;9.02;;;7.75;;
44276;SDS011;29973;43.742;1.236;2024-03-06T07:13:02;13.57;;;7.82;;
44276;SDS011;29973;43.742;1.236;2024-03-06T07:15:28;10.02;;;6.88;;
44276;SDS011;29973;43.742;1.236;2024-03-06T07:17:54;14.25;;;10.55;;
44276;SDS011;29973;43.742;1.236;2024-03-06T07:20:19;17.02;;;13.18;;
44276;SDS011;29973;43.742;1.236;2024-03-06T07:22:45;30.55;;;16.85;;
44276;SDS011;29973;43.742;1.236;2024-03-06T07:25:11;28.80;;;17.40;;
44276;SDS011;29973;43.742;1.236;2024-03-06T07:27:37;27.77;;;18.92;;
44276;SDS011;29973;43.742;1.236;2024-03-06T07:30:03;26.45;;;16.30;;
44276;SDS011;29973;43.742;1.236;2024-03-06T07:32:29;30.35;;;17.42;;
44276;SDS011;29973;43.742;1.236;2024-03-06T07:34:55;30.75;;;15.73;;
44276;SDS011;29973;43.742;1.236;2024-03-06T07:37:23;23.55;;;13.43;;
44276;SDS011;29973;43.742;1.236;2024-03-06T07:39:49;23.83;;;11.82;;
44276;SDS011;29973;43.742;1.236;2024-03-06T07:42:14;20.50;;;10.80;;
44276;SDS011;29973;43.742;1.236;2024-03-06T07:44:40;30.98;;;10.57;;
44276;SDS011;29973;43.742;1.236;2024-03-06T07:47:06;20.98;;;10.15;;
44276;SDS011;29973;43.742;1.236;2024-03-06T07:49:32;17.48;;;9.50;;
44276;SDS011;29973;43.742;1.236;2024-03-06T07:51:58;21.35;;;10.30;;
44276;SDS011;29973;43.742;1.236;2024-03-06T07:54:24;23.35;;;9.88;;
44276;SDS011;29973;43.742;1.236;2024-03-06T07:56:49;16.45;;;8.82;;
44276;SDS011;29973;43.742;1.236;2024-03-06T07:59:16;23.63;;;9.10;;
44276;SDS011;29973;43.742;1.236;2024-03-06T08:01:43;15.10;;;8.45;;
44276;SDS011;29973;43.742;1.236;2024-03-06T08:04:09;11.30;;;7.78;;
44276;SDS011;29973;43.742;1.236;2024-03-06T08:06:34;13.32;;;8.23;;
44276;SDS011;29973;43.742;1.236;2024-03-06T08:09:02;11.93;;;8.10;;
44276;SDS011;29973;43.742;1.236;2024-03-06T08:11:28;16.38;;;8.52;;
44276;SDS011;29973;43.742;1.236;2024-03-06T08:13:57;20.63;;;8.40;;
44276;SDS011;29973;43.742;1.236;2024-03-06T08:16:24;16.65;;;8.10;;
44276;SDS011;29973;43.742;1.236;2024-03-06T08:18:50;14.05;;;7.55;;
44276;SDS011;29973;43.742;1.236;2024-03-06T08:21:15;15.30;;;7.25;;
44276;SDS011;29973;43.742;1.236;2024-03-06T08:23:41;13.52;;;7.03;;
44276;SDS011;29973;43.742;1.236;2024-03-06T08:26:08;12.35;;;6.90;;
44276;SDS011;29973;43.742;1.236;2024-03-06T08:28:34;13.55;;;8.23;;
44276;SDS011;29973;43.742;1.236;2024-03-06T08:31:00;16.20;;;8.27;;
44276;SDS011;29973;43.742;1.236;2024-03-06T08:33:26;18.70;;;8.75;;
44276;SDS011;29973;43.742;1.236;2024-03-06T08:35:51;14.52;;;10.73;;
44276;SDS011;29973;43.742;1.236;2024-03-06T08:38:17;16.45;;;8.68;;
44276;SDS011;29973;43.742;1.236;2024-03-06T08:40:43;15.23;;;7.53;;
44276;SDS011;29973;43.742;1.236;2024-03-06T08:43:11;12.05;;;5.80;;
44276;SDS011;29973;43.742;1.236;2024-03-06T08:45:38;11.25;;;5.65;;
44276;SDS011;29973;43.742;1.236;2024-03-06T08:48:03;15.30;;;6.32;;
44276;SDS011;29973;43.742;1.236;2024-03-06T08:50:30;20.73;;;5.97;;
44276;SDS011;29973;43.742;1.236;2024-03-06T08:52:56;11.90;;;4.88;;
44276;SDS011;29973;43.742;1.236;2024-03-06T08:55:22;13.18;;;5.28;;
44276;SDS011;29973;43.742;1.236;2024-03-06T08:57:48;7.55;;;3.85;;
44276;SDS011;29973;43.742;1.236;2024-03-06T09:00:15;7.75;;;3.05;;
44276;SDS011;29973;43.742;1.236;2024-03-06T09:02:42;10.13;;;2.45;;
44276;SDS011;29973;43.742;1.236;2024-03-06T09:05:08;8.50;;;3.00;;
44276;SDS011;29973;43.742;1.236;2024-03-06T09:07:38;9.75;;;3.15;;
44276;SDS011;29973;43.742;1.236;2024-03-06T09:10:09;7.70;;;2.92;;
44276;SDS011;29973;43.742;1.236;2024-03-06T09:12:35;12.70;;;3.22;;
44276;SDS011;29973;43.742;1.236;2024-03-06T09:15:02;9.77;;;3.17;;
44276;SDS011;29973;43.742;1.236;2024-03-06T09:17:28;10.90;;;4.18;;
44276;SDS011;29973;43.742;1.236;2024-03-06T09:19:54;8.60;;;3.92;;
44276;SDS011;29973;43.742;1.236;2024-03-06T09:22:20;12.77;;;4.28;;
44276;SDS011;29973;43.742;1.236;2024-03-06T09:24:46;13.25;;;4.93;;
44276;SDS011;29973;43.742;1.236;2024-03-06T09:27:13;11.95;;;4.00;;
44276;SDS011;29973;43.742;1.236;2024-03-06T09:29:39;13.52;;;3.35;;
44276;SDS011;29973;43.742;1.236;2024-03-06T09:32:06;10.40;;;3.30;;
44276;SDS011;29973;43.742;1.236;2024-03-06T09:34:31;11.50;;;3.70;;
44276;SDS011;29973;43.742;1.236;2024-03-06T09:36:57;9.82;;;2.92;;
44276;SDS011;29973;43.742;1.236;2024-03-06T09:39:23;7.45;;;3.55;;
44276;SDS011;29973;43.742;1.236;2024-03-06T09:41:52;9.88;;;3.90;;
44276;SDS011;29973;43.742;1.236;2024-03-06T09:44:19;12.27;;;3.33;;
44276;SDS011;29973;43.742;1.236;2024-03-06T09:46:47;14.50;;;3.42;;
44276;SDS011;29973;43.742;1.236;2024-03-06T09:49:18;13.70;;;4.07;;
44276;SDS011;29973;43.742;1.236;2024-03-06T09:51:48;9.55;;;4.00;;
44276;SDS011;29973;43.742;1.236;2024-03-06T09:54:19;14.82;;;3.97;;
44276;SDS011;29973;43.742;1.236;2024-03-06T09:56:45;8.07;;;3.33;;
44276;SDS011;29973;43.742;1.236;2024-03-06T09:59:12;11.38;;;3.35;;
44276;SDS011;29973;43.742;1.236;2024-03-06T10:01:39;7.80;;;3.55;;
44276;SDS011;29973;43.742;1.236;2024-03-06T10:04:21;9.68;;;4.03;;
44276;SDS011;29973;43.742;1.236;2024-03-06T10:06:49;12.00;;;3.78;;
44276;SDS011;29973;43.742;1.236;2024-03-06T10:09:20;13.10;;;3.88;;
44276;SDS011;29973;43.742;1.236;2024-03-06T10:11:46;14.63;;;3.78;;
44276;SDS011;29973;43.742;1.236;2024-03-06T10:14:12;10.70;;;3.70;;
44276;SDS011;29973;43.742;1.236;2024-03-06T10:16:51;13.50;;;3.70;;
44276;SDS011;29973;43.742;1.236;2024-03-06T10:19:21;11.65;;;3.42;;
44276;SDS011;29973;43.742;1.236;2024-03-06T10:21:48;6.35;;;3.08;;
44276;SDS011;29973;43.742;1.236;2024-03-06T10:24:19;17.50;;;4.47;;
44276;SDS011;29973;43.742;1.236;2024-03-06T10:26:48;11.00;;;3.53;;
44276;SDS011;29973;43.742;1.236;2024-03-06T10:29:17;7.47;;;3.22;;
44276;SDS011;29973;43.742;1.236;2024-03-06T10:31:53;13.18;;;3.83;;
44276;SDS011;29973;43.742;1.236;2024-03-06T10:34:20;13.65;;;3.72;;
44276;SDS011;29973;43.742;1.236;2024-03-06T10:36:54;9.85;;;3.42;;
44276;SDS011;29973;43.742;1.236;2024-03-06T10:39:22;9.55;;;3.78;;
44276;SDS011;29973;43.742;1.236;2024-03-06T10:41:51;6.57;;;2.90;;
44276;SDS011;29973;43.742;1.236;2024-03-06T10:44:20;8.80;;;3.47;;
44276;SDS011;29973;43.742;1.236;2024-03-06T10:47:00;8.70;;;3.22;;
44276;SDS011;29973;43.742;1.236;2024-03-06T10:49:28;7.65;;;3.25;;
44276;SDS011;29973;43.742;1.236;2024-03-06T10:52:00;8.75;;;3.22;;
44276;SDS011;29973;43.742;1.236;2024-03-06T10:54:27;10.85;;;3.20;;
44276;SDS011;29973;43.742;1.236;2024-03-06T10:56:55;14.32;;;3.97;;
44276;SDS011;29973;43.742;1.236;2024-03-06T10:59:21;9.73;;;3.17;;
44276;SDS011;29973;43.742;1.236;2024-03-06T11:01:52;10.38;;;3.05;;
44276;SDS011;29973;43.742;1.236;2024-03-06T11:04:19;12.50;;;3.40;;
44276;SDS011;29973;43.742;1.236;2024-03-06T11:06:45;8.52;;;2.97;;
44276;SDS011;29973;43.742;1.236;2024-03-06T11:09:13;12.82;;;3.47;;
44276;SDS011;29973;43.742;1.236;2024-03-06T11:11:47;7.90;;;2.92;;
44276;SDS011;29973;43.742;1.236;2024-03-06T11:14:17;8.07;;;2.72;;
44276;SDS011;29973;43.742;1.236;2024-03-06T11:16:56;8.93;;;2.70;;
44276;SDS011;29973;43.742;1.236;2024-03-06T11:19:28;12.80;;;3.13;;
44276;SDS011;29973;43.742;1.236;2024-03-06T11:21:57;11.85;;;3.38;;
44276;SDS011;29973;43.742;1.236;2024-03-06T11:24:31;10.80;;;2.90;;
44276;SDS011;29973;43.742;1.236;2024-03-06T11:27:02;11.32;;;3.33;;
44276;SDS011;29973;43.742;1.236;2024-03-06T11:30:02;8.52;;;3.10;;
44276;SDS011;29973;43.742;1.236;2024-03-06T11:32:29;14.82;;;3.28;;
44276;SDS011;29973;43.742;1.236;2024-03-06T11:34:55;8.27;;;2.45;;
44276;SDS011;29973;43.742;1.236;2024-03-06T11:37:21;8.70;;;2.97;;
44276;SDS011;29973;43.742;1.236;2024-03-06T11:39:48;10.77;;;2.97;;
44276;SDS011;29973;43.742;1.236;2024-03-06T11:42:13;9.63;;;2.83;;
44276;SDS011;29973;43.742;1.236;2024-03-06T11:44:52;9.80;;;2.58;;
44276;SDS011;29973;43.742;1.236;2024-03-06T11:47:20;6.93;;;2.10;;
44276;SDS011;29973;43.742;1.236;2024-03-06T11:49:46;10.57;;;2.65;;
44276;SDS011;29973;43.742;1.236;2024-03-06T11:52:12;10.73;;;2.85;;
44276;SDS011;29973;43.742;1.236;2024-03-06T11:54:37;7.13;;;2.22;;
44276;SDS011;29973;43.742;1.236;2024-03-06T11:57:04;9.13;;;2.00;;
44276;SDS011;29973;43.742;1.236;2024-03-06T11:59:35;9.95;;;2.30;;
44276;SDS011;29973;43.742;1.236;2024-03-06T12:02:04;6.43;;;2.30;;
44276;SDS011;29973;43.742;1.236;2024-03-06T12:04:30;6.38;;;2.10;;
44276;SDS011;29973;43.742;1.236;2024-03-06T12:07:00;9.48;;;2.55;;
44276;SDS011;29973;43.742;1.236;2024-03-06T12:09:30;9.10;;;2.20;;
44276;SDS011;29973;43.742;1.236;2024-03-06T12:12:00;6.65;;;2.20;;
44276;SDS011;29973;43.742;1.236;2024-03-06T12:14:27;9.68;;;2.58;;
44276;SDS011;29973;43.742;1.236;2024-03-06T12:16:56;6.28;;;2.13;;
44276;SDS011;29973;43.742;1.236;2024-03-06T12:19:24;9.68;;;2.30;;
44276;SDS011;29973;43.742;1.236;2024-03-06T12:21:52;14.68;;;3.25;;
44276;SDS011;29973;43.742;1.236;2024-03-06T12:24:18;7.88;;;1.88;;
44276;SDS011;29973;43.742;1.236;2024-03-06T12:26:44;11.63;;;2.22;;
44276;SDS011;29973;43.742;1.236;2024-03-06T12:29:16;7.75;;;2.40;;
44276;SDS011;29973;43.742;1.236;2024-03-06T12:31:46;6.22;;;2.05;;
44276;SDS011;29973;43.742;1.236;2024-03-06T12:34:15;6.60;;;2.25;;
44276;SDS011;29973;43.742;1.236;2024-03-06T12:36:44;8.38;;;2.22;;
44276;SDS011;29973;43.742;1.236;2024-03-06T12:39:10;9.57;;;2.45;;
44276;SDS011;29973;43.742;1.236;2024-03-06T12:41:43;12.25;;;2.70;;
44276;SDS011;29973;43.742;1.236;2024-03-06T12:44:09;7.55;;;2.20;;
44276;SDS011;29973;43.742;1.236;2024-03-06T12:46:34;7.30;;;2.13;;
44276;SDS011;29973;43.742;1.236;2024-03-06T12:49:00;8.52;;;2.20;;
44276;SDS011;29973;43.742;1.236;2024-03-06T12:51:26;6.40;;;2.40;;
44276;SDS011;29973;43.742;1.236;2024-03-06T12:53:52;10.57;;;2.50;;
44276;SDS011;29973;43.742;1.236;2024-03-06T12:56:18;8.00;;;2.15;;
44276;SDS011;29973;43.742;1.236;2024-03-06T12:58:44;7.22;;;2.10;;
44276;SDS011;29973;43.742;1.236;2024-03-06T13:01:10;10.65;;;1.92;;
44276;SDS011;29973;43.742;1.236;2024-03-06T13:03:36;4.95;;;1.60;;
44276;SDS011;29973;43.742;1.236;2024-03-06T13:06:02;10.93;;;2.03;;
44276;SDS011;29973;43.742;1.236;2024-03-06T13:08:31;12.27;;;2.50;;
44276;SDS011;29973;43.742;1.236;2024-03-06T13:10:57;12.05;;;2.38;;
44276;SDS011;29973;43.742;1.236;2024-03-06T13:13:23;10.63;;;2.55;;
44276;SDS011;29973;43.742;1.236;2024-03-06T13:15:50;11.70;;;2.38;;
44276;SDS011;29973;43.742;1.236;2024-03-06T13:18:16;13.60;;;2.65;;
44276;SDS011;29973;43.742;1.236;2024-03-06T13:20:42;6.90;;;2.40;;
44276;SDS011;29973;43.742;1.236;2024-03-06T13:23:09;9.93;;;2.45;;
44276;SDS011;29973;43.742;1.236;2024-03-06T13:25:35;12.60;;;2.50;;
44276;SDS011;29973;43.742;1.236;2024-03-06T13:28:00;10.88;;;2.58;;
44276;SDS011;29973;43.742;1.236;2024-03-06T13:30:26;7.78;;;1.80;;
44276;SDS011;29973;43.742;1.236;2024-03-06T13:32:52;10.45;;;2.25;;
44276;SDS011;29973;43.742;1.236;2024-03-06T13:35:19;7.03;;;1.75;;
44276;SDS011;29973;43.742;1.236;2024-03-06T13:37:45;7.10;;;2.20;;
44276;SDS011;29973;43.742;1.236;2024-03-06T13:40:11;10.10;;;2.42;;
44276;SDS011;29973;43.742;1.236;2024-03-06T13:42:40;7.43;;;1.95;;
44276;SDS011;29973;43.742;1.236;2024-03-06T13:45:07;5.30;;;1.70;;
44276;SDS011;29973;43.742;1.236;2024-03-06T13:47:40;6.85;;;2.28;;
44276;SDS011;29973;43.742;1.236;2024-03-06T13:50:13;9.18;;;2.13;;
44276;SDS011;29973;43.742;1.236;2024-03-06T13:52:40;10.68;;;2.70;;
44276;SDS011;29973;43.742;1.236;2024-03-06T13:55:07;6.25;;;2.70;;
44276;SDS011;29973;43.742;1.236;2024-03-06T13:57:34;8.50;;;2.60;;
44276;SDS011;29973;43.742;1.236;2024-03-06T14:00:07;7.05;;;1.92;;
44276;SDS011;29973;43.742;1.236;2024-03-06T14:02:38;7.38;;;2.20;;
44276;SDS011;29973;43.742;1.236;2024-03-06T14:05:05;12.10;;;2.13;;
44276;SDS011;29973;43.742;1.236;2024-03-06T14:07:31;5.60;;;1.58;;
44276;SDS011;29973;43.742;1.236;2024-03-06T14:09:57;5.93;;;1.48;;
44276;SDS011;29973;43.742;1.236;2024-03-06T14:12:23;4.75;;;1.35;;
44276;SDS011;29973;43.742;1.236;2024-03-06T14:14:49;6.65;;;2.00;;
44276;SDS011;29973;43.742;1.236;2024-03-06T14:17:14;7.95;;;1.80;;
44276;SDS011;29973;43.742;1.236;2024-03-06T14:19:40;8.18;;;1.90;;
44276;SDS011;29973;43.742;1.236;2024-03-06T14:22:07;10.55;;;2.38;;
44276;SDS011;29973;43.742;1.236;2024-03-06T14:24:33;5.85;;;1.60;;
44276;SDS011;29973;43.742;1.236;2024-03-06T14:26:59;7.72;;;2.05;;
44276;SDS011;29973;43.742;1.236;2024-03-06T14:29:25;8.00;;;1.83;;
44276;SDS011;29973;43.742;1.236;2024-03-06T14:31:53;8.50;;;2.17;;
44276;SDS011;29973;43.742;1.236;2024-03-06T14:34:19;8.98;;;2.03;;
44276;SDS011;29973;43.742;1.236;2024-03-06T14:36:45;6.35;;;1.45;;
44276;SDS011;29973;43.742;1.236;2024-03-06T14:39:11;6.75;;;1.90;;
44276;SDS011;29973;43.742;1.236;2024-03-06T14:41:38;5.47;;;2.45;;
44276;SDS011;29973;43.742;1.236;2024-03-06T14:44:04;6.78;;;1.40;;